createdAt,value
2022-09-02T00:01:38.362Z,12.79
2022-09-02T00:04:04.593Z,12.79
2022-09-02T00:06:30.859Z,12.82
2022-09-02T00:08:57.128Z,12.83
2022-09-02T00:11:23.478Z,12.86
2022-09-02T00:13:49.786Z,12.88
2022-09-02T00:16:16.049Z,12.93
2022-09-02T00:18:45.777Z,12.93
2022-09-02T00:21:12.248Z,12.95
2022-09-02T00:23:38.491Z,12.95
2022-09-02T00:26:04.739Z,12.94
2022-09-02T00:28:30.993Z,12.91
2022-09-02T00:30:57.210Z,12.94
2022-09-02T00:33:23.550Z,12.94
2022-09-02T00:35:49.774Z,12.93
2022-09-02T00:38:15.999Z,12.95
2022-09-02T00:40:42.307Z,12.95
2022-09-02T00:43:10.440Z,12.94
2022-09-02T00:45:36.717Z,12.95
2022-09-02T00:48:02.967Z,12.98
2022-09-02T00:50:29.189Z,12.99
2022-09-02T00:52:55.830Z,13.00
2022-09-02T00:55:22.061Z,13.03
2022-09-02T00:57:48.440Z,13.04
2022-09-02T01:00:14.698Z,13.04
2022-09-02T01:02:40.937Z,13.04
2022-09-02T01:05:07.149Z,13.05
2022-09-02T01:07:33.516Z,13.04
2022-09-02T01:09:59.752Z,13.06
2022-09-02T01:12:25.993Z,13.07
2022-09-02T01:14:52.216Z,13.06
2022-09-02T01:17:18.453Z,13.05
2022-09-02T01:19:44.678Z,13.03
2022-09-02T01:22:10.910Z,13.00
2022-09-02T01:24:37.129Z,12.99
2022-09-02T01:27:03.366Z,13.01
2022-09-02T01:29:29.582Z,13.01
2022-09-02T01:31:55.895Z,12.99
2022-09-02T01:34:22.178Z,12.99
2022-09-02T01:36:48.420Z,12.99
2022-09-02T01:39:14.631Z,12.96
2022-09-02T01:41:40.863Z,12.97
2022-09-02T01:44:07.098Z,12.95
2022-09-02T01:46:33.460Z,12.93
2022-09-02T01:48:59.732Z,12.91
2022-09-02T01:51:25.997Z,12.93
2022-09-02T01:53:52.212Z,12.93
2022-09-02T01:56:18.458Z,12.91
2022-09-02T01:58:44.732Z,12.91
2022-09-02T02:01:11.010Z,12.90
2022-09-02T02:03:37.370Z,12.90
2022-09-02T02:06:04.396Z,12.89
2022-09-02T02:08:30.640Z,12.89
2022-09-02T02:10:56.872Z,12.86
2022-09-02T02:13:23.225Z,12.83
2022-09-02T02:15:49.607Z,12.80
2022-09-02T02:18:15.864Z,12.76
2022-09-02T02:20:42.915Z,12.70
2022-09-02T02:23:11.276Z,12.66
2022-09-02T02:25:37.506Z,12.61
2022-09-02T02:28:03.721Z,12.56
2022-09-02T02:30:31.856Z,12.54
2022-09-02T02:32:58.151Z,12.53
2022-09-02T02:35:24.385Z,12.52
2022-09-02T02:37:50.612Z,12.48
2022-09-02T02:40:16.893Z,12.44
2022-09-02T02:42:43.249Z,12.41
2022-09-02T02:45:09.491Z,12.37
2022-09-02T02:47:41.596Z,12.34
2022-09-02T02:50:07.835Z,12.32
2022-09-02T02:52:34.099Z,12.29
2022-09-02T02:55:00.346Z,12.28
2022-09-02T02:57:26.572Z,12.24
2022-09-02T02:59:52.818Z,12.20
2022-09-02T03:02:19.135Z,12.18
2022-09-02T03:04:45.420Z,12.16
2022-09-02T03:07:11.726Z,12.13
2022-09-02T03:09:37.943Z,12.10
2022-09-02T03:12:04.172Z,12.09
2022-09-02T03:14:30.397Z,12.09
2022-09-02T03:16:56.637Z,12.05
2022-09-02T03:19:22.842Z,12.01
2022-09-02T03:21:49.097Z,11.99
2022-09-02T03:24:15.339Z,11.98
2022-09-02T03:26:41.593Z,11.94
2022-09-02T03:29:07.811Z,11.89
2022-09-02T03:31:34.102Z,11.86
2022-09-02T03:34:00.435Z,11.83
2022-09-02T03:36:26.663Z,11.79
2022-09-02T03:38:52.873Z,11.75
2022-09-02T03:41:19.113Z,11.73
2022-09-02T03:43:45.319Z,11.71
2022-09-02T03:46:11.745Z,11.68
2022-09-02T03:48:38.033Z,11.68
2022-09-02T03:51:04.283Z,11.65
2022-09-02T03:53:30.570Z,11.65
2022-09-02T03:55:56.804Z,11.64
2022-09-02T03:58:23.025Z,11.63
2022-09-02T04:00:49.273Z,11.63
2022-09-02T04:03:15.622Z,11.62
2022-09-02T04:05:42.009Z,11.63
2022-09-02T04:08:08.227Z,11.63
2022-09-02T04:10:34.493Z,11.62
2022-09-02T04:13:00.720Z,11.59
2022-09-02T04:15:26.965Z,11.57
2022-09-02T04:17:53.192Z,11.57
2022-09-02T04:20:19.456Z,11.56
2022-09-02T04:22:45.680Z,11.54
2022-09-02T04:25:12.031Z,11.51
2022-09-02T04:27:38.287Z,11.52
2022-09-02T04:30:04.724Z,11.50
2022-09-02T04:32:30.964Z,11.49
2022-09-02T04:34:57.214Z,11.49
2022-09-02T04:37:23.493Z,11.49
2022-09-02T04:39:49.718Z,11.50
2022-09-02T04:42:15.943Z,11.52
2022-09-02T04:44:42.179Z,11.53
2022-09-02T04:47:08.392Z,11.53
2022-09-02T04:49:34.623Z,11.56
2022-09-02T04:52:00.872Z,11.58
2022-09-02T04:54:27.113Z,11.62
2022-09-02T04:56:53.346Z,11.64
2022-09-02T04:59:19.578Z,11.67
2022-09-02T05:01:45.939Z,11.71
2022-09-02T05:04:12.246Z,11.71
2022-09-02T05:06:43.391Z,11.74
2022-09-02T05:09:10.472Z,11.76
2022-09-02T05:11:36.710Z,11.79
2022-09-02T05:14:02.959Z,11.83
2022-09-02T05:16:29.194Z,11.86
2022-09-02T05:18:55.464Z,11.88
2022-09-02T05:21:21.692Z,11.92
2022-09-02T05:23:47.948Z,11.96
2022-09-02T05:26:14.169Z,12.01
2022-09-02T05:28:40.421Z,12.04
2022-09-02T05:31:06.682Z,12.07
2022-09-02T05:33:33.005Z,12.10
2022-09-02T05:35:59.355Z,12.13
2022-09-02T05:38:25.592Z,12.15
2022-09-02T05:40:51.895Z,12.18
2022-09-02T05:43:18.191Z,12.21
2022-09-02T05:45:44.513Z,12.25
2022-09-02T05:48:10.770Z,12.31
2022-09-02T05:50:37.006Z,12.37
2022-09-02T05:53:03.257Z,12.40
2022-09-02T05:55:29.485Z,12.43
2022-09-02T05:57:55.777Z,12.45
2022-09-02T06:00:22.084Z,12.51
2022-09-02T06:02:48.376Z,12.54
2022-09-02T06:05:14.700Z,12.60
2022-09-02T06:07:41.005Z,12.64
2022-09-02T06:10:07.300Z,12.68
2022-09-02T06:12:33.549Z,12.72
2022-09-02T06:14:59.824Z,12.78
2022-09-02T06:17:26.070Z,12.84
2022-09-02T06:19:52.764Z,12.92
2022-09-02T06:22:19.243Z,12.99
2022-09-02T06:24:45.533Z,13.06
2022-09-02T06:27:11.777Z,13.13
2022-09-02T06:29:38.047Z,13.17
2022-09-02T06:32:04.312Z,13.17
2022-09-02T06:34:30.621Z,13.15
2022-09-02T06:36:56.874Z,13.16
2022-09-02T06:39:23.802Z,13.20
2022-09-02T06:41:50.056Z,13.25
2022-09-02T06:44:16.416Z,13.32
2022-09-02T06:46:42.734Z,13.40
2022-09-02T06:49:09.033Z,13.48
2022-09-02T06:51:35.271Z,13.58
2022-09-02T06:54:02.224Z,13.67
2022-09-02T06:56:28.536Z,13.75
2022-09-02T06:58:54.991Z,13.85
2022-09-02T07:01:21.366Z,14.04
2022-09-02T07:03:47.750Z,14.17
2022-09-02T07:06:14.033Z,14.33
2022-09-02T07:08:40.256Z,14.47
2022-09-02T07:11:06.532Z,14.58
2022-09-02T07:13:32.805Z,14.66
2022-09-02T07:15:59.094Z,14.70
2022-09-02T07:18:25.365Z,14.77
2022-09-02T07:20:51.661Z,14.80
2022-09-02T07:23:17.981Z,14.83
2022-09-02T07:25:44.272Z,14.89
2022-09-02T07:28:10.506Z,14.89
2022-09-02T07:30:36.965Z,14.90
2022-09-02T07:33:03.268Z,14.82
2022-09-02T07:35:29.567Z,14.80
2022-09-02T07:37:55.892Z,14.68
2022-09-02T07:40:22.259Z,14.64
2022-09-02T07:42:48.557Z,14.64
2022-09-02T07:45:14.922Z,14.71
2022-09-02T07:47:41.330Z,14.79
2022-09-02T07:50:18.905Z,14.84
2022-09-02T07:52:46.972Z,14.92
2022-09-02T07:55:15.108Z,14.98
2022-09-02T07:57:41.628Z,15.05
2022-09-02T08:00:07.894Z,15.15
2022-09-02T08:02:34.280Z,15.26
2022-09-02T08:05:00.550Z,15.36
2022-09-02T08:07:26.994Z,15.48
2022-09-02T08:09:53.346Z,15.61
2022-09-02T08:12:21.724Z,15.69
2022-09-02T08:14:49.003Z,15.81
2022-09-02T08:17:15.988Z,15.91
2022-09-02T08:19:43.752Z,16.01
2022-09-02T08:22:10.186Z,16.14
2022-09-02T08:24:36.486Z,16.24
2022-09-02T08:27:03.750Z,16.28
2022-09-02T08:29:30.216Z,16.34
2022-09-02T08:31:56.521Z,16.44
2022-09-02T08:34:22.852Z,16.48
2022-09-02T08:36:56.120Z,16.55
2022-09-02T08:41:54.499Z,16.73
2022-09-02T08:44:20.823Z,16.80
2022-09-02T08:46:47.207Z,16.84
2022-09-02T08:49:13.931Z,16.85
2022-09-02T08:51:40.197Z,16.93
2022-09-02T08:54:06.720Z,17.01
2022-09-02T08:56:33.115Z,17.02
2022-09-02T08:58:59.664Z,17.02
2022-09-02T09:01:26.027Z,17.13
2022-09-02T09:03:52.461Z,17.23
2022-09-02T09:06:19.004Z,17.31
2022-09-02T09:08:45.334Z,17.36
2022-09-02T09:11:11.582Z,17.45
2022-09-02T09:13:41.328Z,17.55
2022-09-02T09:16:08.045Z,17.57
2022-09-02T09:18:34.398Z,17.60
2022-09-02T09:21:00.760Z,17.58
2022-09-02T09:23:27.391Z,17.60
2022-09-02T09:25:54.022Z,17.66
2022-09-02T09:28:20.271Z,17.72
2022-09-02T09:30:46.615Z,17.81
2022-09-02T09:33:13.098Z,17.82
2022-09-02T09:35:39.468Z,17.76
2022-09-02T09:38:05.766Z,17.68
2022-09-02T09:40:32.165Z,17.72
2022-09-02T09:42:58.564Z,17.82
2022-09-02T09:45:24.954Z,17.84
2022-09-02T09:47:52.476Z,17.87
2022-09-02T09:50:24.890Z,17.99
2022-09-02T09:52:52.936Z,18.21
2022-09-02T09:55:24.710Z,18.29
2022-09-02T09:57:51.599Z,18.23
2022-09-02T10:00:18.634Z,18.17
2022-09-02T10:02:44.889Z,18.17
2022-09-02T10:05:11.360Z,18.15
2022-09-02T10:07:37.712Z,18.14
2022-09-02T10:10:03.955Z,18.12
2022-09-02T10:12:30.284Z,18.09
2022-09-02T10:14:56.537Z,18.06
2022-09-02T10:17:22.776Z,18.04
2022-09-02T10:19:49.050Z,18.10
2022-09-02T10:22:15.286Z,18.20
2022-09-02T10:24:41.641Z,18.39
2022-09-02T10:27:08.020Z,18.67
2022-09-02T10:29:36.956Z,19.01
2022-09-02T10:32:03.306Z,19.10
2022-09-02T10:34:29.619Z,19.16
2022-09-02T10:36:56.042Z,19.24
2022-09-02T10:39:22.405Z,19.36
2022-09-02T10:41:48.796Z,19.27
2022-09-02T10:44:15.067Z,19.15
2022-09-02T10:46:41.452Z,19.20
2022-09-02T10:49:08.097Z,19.46
2022-09-02T10:51:34.540Z,19.55
2022-09-02T10:54:02.987Z,19.54
2022-09-02T10:56:29.427Z,19.51
2022-09-02T10:58:55.748Z,19.45
2022-09-02T11:01:22.142Z,19.35
2022-09-02T11:03:49.865Z,19.34
2022-09-02T11:06:16.321Z,19.30
2022-09-02T11:08:42.706Z,19.30
2022-09-02T11:11:11.186Z,19.23
2022-09-02T11:13:37.550Z,19.24
2022-09-02T11:16:06.724Z,19.19
2022-09-02T11:18:33.381Z,19.16
2022-09-02T11:21:01.952Z,19.12
2022-09-02T11:23:28.258Z,19.18
2022-09-02T11:25:57.094Z,19.25
2022-09-02T11:28:24.221Z,19.35
2022-09-02T11:33:22.750Z,19.44
2022-09-02T11:35:49.597Z,19.49
2022-09-02T11:38:15.882Z,19.51
2022-09-02T11:40:42.306Z,19.58
2022-09-02T11:43:08.548Z,19.80
2022-09-02T11:45:34.868Z,19.89
2022-09-02T11:48:01.155Z,19.94
2022-09-02T11:50:27.634Z,19.96
2022-09-02T11:53:00.007Z,19.87
2022-09-02T11:55:26.312Z,19.75
2022-09-02T11:57:52.767Z,19.88
2022-09-02T12:00:19.078Z,19.89
2022-09-02T12:02:45.332Z,19.87
2022-09-02T12:05:11.935Z,19.85
2022-09-02T12:07:38.316Z,19.84
2022-09-02T12:10:04.652Z,19.81
2022-09-02T12:12:31.219Z,19.73
2022-09-02T12:14:57.526Z,19.66
2022-09-02T12:17:23.762Z,19.62
2022-09-02T12:19:50.097Z,19.70
2022-09-02T12:22:16.499Z,19.87
2022-09-02T12:24:43.491Z,20.07
2022-09-02T12:27:10.566Z,20.19
2022-09-02T12:29:37.055Z,20.23
2022-09-02T12:32:06.087Z,20.37
2022-09-02T12:34:32.358Z,20.60
2022-09-02T12:36:58.656Z,20.69
2022-09-02T12:39:25.029Z,20.72
2022-09-02T12:41:51.486Z,20.57
2022-09-02T12:44:17.948Z,20.42
2022-09-02T12:46:44.487Z,20.29
2022-09-02T12:49:11.109Z,20.28
2022-09-02T12:51:37.481Z,20.28
2022-09-02T12:54:04.145Z,20.32
2022-09-02T12:56:30.578Z,20.27
2022-09-02T12:59:02.212Z,20.06
2022-09-02T13:01:32.273Z,20.01
2022-09-02T13:03:59.730Z,20.02
2022-09-02T13:06:26.038Z,20.05
2022-09-02T13:08:52.389Z,20.09
2022-09-02T13:11:19.278Z,20.22
2022-09-02T13:13:45.580Z,20.51
2022-09-02T13:16:18.351Z,20.98
2022-09-02T13:18:45.598Z,21.54
2022-09-02T13:21:11.935Z,21.98
2022-09-02T13:23:38.232Z,22.33
2022-09-02T13:26:04.492Z,22.58
2022-09-02T13:30:57.110Z,22.37
2022-09-02T13:33:23.520Z,22.10
2022-09-02T13:35:49.822Z,21.89
2022-09-02T13:38:18.523Z,21.65
2022-09-02T13:40:47.285Z,21.43
2022-09-02T13:43:13.565Z,21.27
2022-09-02T13:45:39.800Z,21.14
2022-09-02T13:48:06.088Z,21.15
2022-09-02T13:50:32.494Z,21.39
2022-09-02T13:55:45.257Z,22.50
2022-09-02T13:58:11.582Z,22.98
2022-09-02T14:00:38.004Z,23.44
2022-09-02T14:03:04.440Z,23.85
2022-09-02T14:05:30.786Z,24.28
2022-09-02T14:07:57.037Z,24.54
2022-09-02T14:10:23.489Z,24.59
2022-09-02T14:12:49.869Z,24.77
2022-09-02T14:15:16.243Z,24.98
2022-09-02T14:17:42.595Z,25.10
2022-09-02T14:20:08.929Z,25.25
2022-09-02T14:22:35.289Z,25.36
2022-09-02T14:25:01.598Z,25.65
2022-09-02T14:27:27.981Z,25.74
2022-09-02T14:29:56.032Z,25.85
2022-09-02T14:32:22.289Z,25.93
2022-09-02T14:34:49.615Z,25.89
2022-09-02T14:37:16.217Z,25.87
2022-09-02T14:39:42.691Z,25.78
2022-09-02T14:42:11.308Z,25.93
2022-09-02T14:44:38.072Z,26.00
2022-09-02T14:47:04.641Z,25.73
2022-09-02T14:49:31.039Z,25.71
2022-09-02T14:51:57.731Z,25.53
2022-09-02T14:54:24.282Z,25.48
2022-09-02T14:56:50.535Z,25.40
2022-09-02T14:59:17.040Z,25.29
2022-09-02T15:01:43.423Z,25.25
2022-09-02T15:04:14.651Z,24.93
2022-09-02T15:06:41.148Z,24.25
2022-09-02T15:09:08.376Z,23.68
2022-09-02T15:11:35.137Z,23.11
2022-09-02T15:14:01.501Z,22.96
2022-09-02T15:16:28.198Z,23.15
2022-09-02T15:18:54.758Z,23.44
2022-09-02T15:21:21.230Z,23.69
2022-09-02T15:23:51.028Z,23.90
2022-09-02T15:26:18.678Z,24.09
2022-09-02T15:28:45.451Z,24.32
2022-09-02T15:31:19.168Z,24.38
2022-09-02T15:33:45.738Z,24.23
2022-09-02T15:36:12.247Z,24.20
2022-09-02T15:38:38.980Z,23.85
2022-09-02T15:41:05.651Z,23.53
2022-09-02T15:43:32.016Z,23.17
2022-09-02T15:45:58.494Z,22.84
2022-09-02T15:48:25.100Z,22.42
2022-09-02T15:50:54.296Z,22.17
2022-09-02T15:53:21.121Z,21.93
2022-09-02T15:55:47.525Z,21.70
2022-09-02T15:58:13.880Z,21.47
2022-09-02T16:00:40.261Z,21.27
2022-09-02T16:03:10.109Z,21.13
2022-09-02T16:05:36.628Z,21.00
2022-09-02T16:08:03.271Z,20.90
2022-09-02T16:10:29.760Z,21.00
2022-09-02T16:12:56.228Z,21.23
2022-09-02T16:15:22.507Z,21.56
2022-09-02T16:17:49.321Z,21.86
2022-09-02T16:20:19.228Z,22.15
2022-09-02T16:25:13.819Z,22.71
2022-09-02T16:27:40.145Z,22.75
2022-09-02T16:30:06.392Z,22.80
2022-09-02T16:32:32.706Z,22.94
2022-09-02T16:34:58.929Z,23.01
2022-09-02T16:37:25.182Z,22.98
2022-09-02T16:39:51.446Z,23.02
2022-09-02T16:42:17.739Z,22.99
2022-09-02T16:44:44.013Z,22.90
2022-09-02T16:47:12.404Z,22.94
2022-09-02T16:49:40.114Z,22.89
2022-09-02T16:52:06.366Z,22.69
2022-09-02T16:54:36.219Z,22.61
2022-09-02T16:57:04.975Z,22.46
2022-09-02T16:59:31.245Z,22.36
2022-09-02T17:01:57.573Z,22.28
2022-09-02T17:04:23.841Z,22.15
2022-09-02T17:06:50.861Z,22.08
2022-09-02T17:09:17.096Z,21.79
2022-09-02T17:11:43.337Z,21.69
2022-09-02T17:14:09.731Z,21.51
2022-09-02T17:16:36.016Z,21.31
2022-09-02T17:19:02.300Z,21.16
2022-09-02T17:21:28.621Z,20.98
2022-09-02T17:23:54.874Z,20.73
2022-09-02T17:26:21.100Z,20.43
2022-09-02T17:28:47.359Z,20.25
2022-09-02T17:31:13.661Z,20.09
2022-09-02T17:33:40.037Z,19.85
2022-09-02T17:36:06.257Z,19.66
2022-09-02T17:38:32.507Z,19.54
2022-09-02T17:40:58.813Z,19.33
2022-09-02T17:43:25.028Z,19.22
2022-09-02T17:45:51.309Z,19.09
2022-09-02T17:48:37.021Z,18.96
2022-09-02T17:51:04.089Z,18.85
2022-09-02T17:53:30.360Z,18.77
2022-09-02T17:55:56.642Z,18.70
2022-09-02T17:58:23.037Z,18.61
2022-09-02T18:00:49.335Z,18.56
2022-09-02T18:03:20.233Z,18.47
2022-09-02T18:05:48.341Z,18.35
2022-09-02T18:08:14.788Z,18.24
2022-09-02T18:10:41.045Z,18.14
2022-09-02T18:13:07.271Z,18.04
2022-09-02T18:15:33.767Z,18.00
2022-09-02T18:18:00.243Z,17.93
2022-09-02T18:20:26.520Z,17.83
2022-09-02T18:22:52.824Z,17.77
2022-09-02T18:25:19.362Z,17.73
2022-09-02T18:27:46.883Z,17.66
2022-09-02T18:30:13.129Z,17.61
2022-09-02T18:32:39.476Z,17.57
2022-09-02T18:35:05.806Z,17.51
2022-09-02T18:37:32.144Z,17.44
2022-09-02T18:40:02.628Z,17.39
2022-09-02T18:42:29.457Z,17.34
2022-09-02T18:44:55.726Z,17.30
2022-09-02T18:47:21.982Z,17.26
2022-09-02T18:49:48.423Z,17.24
2022-09-02T18:52:14.783Z,17.19
2022-09-02T18:54:41.249Z,17.12
2022-09-02T18:57:07.582Z,17.08
2022-09-02T18:59:33.905Z,17.05
2022-09-02T19:02:00.321Z,17.01
2022-09-02T19:04:29.412Z,16.97
2022-09-02T19:06:55.978Z,16.92
2022-09-02T19:09:22.441Z,16.88
2022-09-02T19:11:48.705Z,16.82
2022-09-02T19:14:14.996Z,16.76
2022-09-02T19:16:41.326Z,16.69
2022-09-02T19:19:07.635Z,16.66
2022-09-02T19:21:33.989Z,16.62
2022-09-02T19:24:00.443Z,16.57
2022-09-02T19:26:26.922Z,16.51
2022-09-02T19:28:53.209Z,16.47
2022-09-02T19:31:19.569Z,16.40
2022-09-02T19:33:45.971Z,16.37
2022-09-02T19:36:12.792Z,16.34
2022-09-02T19:38:39.144Z,16.30
2022-09-02T19:41:05.694Z,16.27
2022-09-02T19:43:32.101Z,16.24
2022-09-02T19:45:59.964Z,16.20
2022-09-02T19:48:27.357Z,16.16
2022-09-02T19:50:53.640Z,16.12
2022-09-02T19:53:19.858Z,16.09
2022-09-02T19:55:46.179Z,16.05
2022-09-02T19:58:12.537Z,16.01
2022-09-02T20:00:38.918Z,16.00
2022-09-02T20:03:05.450Z,15.96
2022-09-02T20:05:32.799Z,15.90
2022-09-02T20:07:59.190Z,15.85
2022-09-02T20:10:28.257Z,15.82
2022-09-02T20:12:56.325Z,15.80
2022-09-02T20:15:23.023Z,15.78
2022-09-02T20:17:49.457Z,15.74
2022-09-02T20:20:15.894Z,15.70
2022-09-02T20:22:42.209Z,15.69
2022-09-02T20:25:08.485Z,15.66
2022-09-02T20:27:34.803Z,15.63
2022-09-02T20:30:01.236Z,15.62
2022-09-02T20:32:27.505Z,15.59
2022-09-02T20:34:53.845Z,15.56
2022-09-02T20:37:20.191Z,15.52
2022-09-02T20:39:46.569Z,15.49
2022-09-02T20:42:12.934Z,15.47
2022-09-02T20:44:39.242Z,15.43
2022-09-02T20:47:05.602Z,15.42
2022-09-02T20:49:31.929Z,15.39
2022-09-02T20:51:58.384Z,15.39
2022-09-02T20:54:24.609Z,15.35
2022-09-02T20:56:51.033Z,15.33
2022-09-02T20:59:17.462Z,15.28
2022-09-02T21:01:46.010Z,15.24
2022-09-02T21:04:12.499Z,15.20
2022-09-02T21:06:38.881Z,15.17
2022-09-02T21:09:05.175Z,15.16
2022-09-02T21:11:31.792Z,15.15
2022-09-02T21:13:58.263Z,15.09
2022-09-02T21:16:24.735Z,15.06
2022-09-02T21:18:51.279Z,15.04
2022-09-02T21:21:17.550Z,14.99
2022-09-02T21:23:43.920Z,14.95
2022-09-02T21:26:10.325Z,14.89
2022-09-02T21:28:36.786Z,14.85
2022-09-02T21:31:03.131Z,14.81
2022-09-02T21:33:29.436Z,14.76
2022-09-02T21:35:55.964Z,14.73
2022-09-02T21:38:22.294Z,14.71
2022-09-02T21:40:48.643Z,14.68
2022-09-02T21:43:14.998Z,14.66
2022-09-02T21:45:41.342Z,14.64
2022-09-02T21:48:07.638Z,14.60
2022-09-02T21:50:33.948Z,14.58
2022-09-02T21:53:00.399Z,14.53
2022-09-02T21:55:26.772Z,14.47
2022-09-02T21:57:54.672Z,14.41
2022-09-02T22:00:21.893Z,14.37
2022-09-02T22:02:48.390Z,14.31
2022-09-02T22:05:14.870Z,14.23
2022-09-02T22:07:41.233Z,14.20
2022-09-02T22:10:07.571Z,14.15
2022-09-02T22:12:34.058Z,14.15
2022-09-02T22:15:00.363Z,14.12
2022-09-02T22:17:26.618Z,14.09
2022-09-02T22:19:52.867Z,14.06
2022-09-02T22:22:19.181Z,14.02
2022-09-02T22:24:45.818Z,13.99
2022-09-02T22:27:12.156Z,13.95
2022-09-02T22:29:38.456Z,13.90
2022-09-02T22:32:04.795Z,13.86
2022-09-02T22:34:31.101Z,13.85
2022-09-02T22:36:57.353Z,13.82
2022-09-02T22:39:23.826Z,13.76
2022-09-02T22:41:50.241Z,13.75
2022-09-02T22:44:16.559Z,13.73
2022-09-02T22:46:43.081Z,13.69
2022-09-02T22:49:09.401Z,13.68
2022-09-02T22:51:35.662Z,13.64
2022-09-02T22:54:02.129Z,13.62
2022-09-02T22:56:29.991Z,13.60
2022-09-02T22:58:56.425Z,13.57
2022-09-02T23:01:22.777Z,13.53
2022-09-02T23:03:49.436Z,13.50
2022-09-02T23:06:15.827Z,13.47
2022-09-02T23:08:42.105Z,13.43
2022-09-02T23:11:08.574Z,13.40
2022-09-02T23:13:34.817Z,13.38
2022-09-02T23:16:01.276Z,13.34
2022-09-02T23:18:27.626Z,13.31
2022-09-02T23:20:53.912Z,13.29
2022-09-02T23:23:20.185Z,13.27
2022-09-02T23:25:46.530Z,13.26
2022-09-02T23:28:12.825Z,13.22
2022-09-02T23:30:39.182Z,13.20
2022-09-02T23:33:05.586Z,13.20
2022-09-02T23:35:31.929Z,13.16
2022-09-02T23:37:58.193Z,13.15
2022-09-02T23:40:24.545Z,13.14
2022-09-02T23:42:50.874Z,13.12
2022-09-02T23:45:17.267Z,13.10
2022-09-02T23:47:43.518Z,13.08
2022-09-02T23:50:09.870Z,13.05
2022-09-02T23:52:36.176Z,13.03
2022-09-02T23:55:02.509Z,12.99
2022-09-02T23:57:28.861Z,12.97
2022-09-02T23:59:55.392Z,12.96
